Time;durP1;ratioP1;P1;durP2;ratioP2;P2;SDS_P1;SDS_P2;PMS_P1;PMS_P2;Temp;Humidity;BMP_temperature;BMP_pressure;BME280_temperature;BME280_humidity;BME280_pressure;Samples;Min_cycle;Max_cycle;Signal;HPM_P1;HPM_P2
2021/05/28 08:29:03;;;;;;;6.63;3.40;;;;;;;13.87;61.91;99669.97;5091024;27;20919;-82
2021/05/28 08:31:49;;;;;;;7.43;4.63;;;;;;;14.31;62.18;99667.00;5090381;28;20415;-81
2021/05/28 08:34:16;;;;;;;5.65;4.13;;;;;;;14.61;60.19;99658.66;5087656;28;20044;-81
2021/05/28 08:36:42;;;;;;;6.75;3.53;;;;;;;14.80;61.76;99659.84;5078346;28;20063;-80
2021/05/28 08:39:08;;;;;;;5.57;3.35;;;;;;;15.12;59.72;99673.13;5076608;28;20045;-80
2021/05/28 08:41:43;;;;;;;7.47;4.20;;;;;;;14.99;58.15;99658.28;5083733;28;20049;-82
2021/05/28 08:44:27;;;;;;;5.75;3.60;;;;;;;15.01;60.09;99652.63;5068472;28;20103;-81
2021/05/28 08:46:55;;;;;;;7.40;3.60;;;;;;;14.68;59.88;99656.81;5087609;28;20086;-80
2021/05/28 08:49:22;;;;;;;4.65;3.40;;;;;;;14.88;57.50;99647.91;5088840;28;20060;-81
2021/05/28 08:52:05;;;;;;;5.97;3.42;;;;;;;14.25;58.69;99654.13;5087871;28;20056;-80
2021/05/28 08:54:32;;;;;;;6.75;3.45;;;;;;;14.19;61.60;99673.22;5067929;28;20057;-80
2021/05/28 09:03:57;;;;;;;7.28;4.00;;;;;;;14.40;61.48;99658.69;5048436;28;20116;-82
2021/05/28 09:06:28;;;;;;;5.65;4.32;;;;;;;14.61;58.57;99653.19;5087930;28;20052;-81
2021/05/28 09:09:08;;;;;;;6.20;3.00;;;;;;;15.08;54.76;99660.88;5087484;28;20059;-82
2021/05/28 09:14:55;;;;;;;3.75;2.65;;;;;;;15.61;54.12;99647.41;5060070;28;20047;-82
2021/05/28 09:17:22;;;;;;;7.05;2.95;;;;;;;15.86;54.15;99635.91;5084301;28;20117;-82
2021/05/28 09:20:00;;;;;;;7.75;3.40;;;;;;;15.93;53.60;99634.84;5082538;28;20496;-82
2021/05/28 09:22:33;;;;;;;6.75;3.40;;;;;;;16.07;52.76;99638.44;5073974;28;20060;-83
2021/05/28 09:25:00;;;;;;;4.43;3.45;;;;;;;16.49;52.89;99643.75;5086877;28;20041;-82
2021/05/28 09:27:29;;;;;;;4.07;2.70;;;;;;;16.47;54.07;99640.38;5083985;28;20049;-82
2021/05/28 09:30:10;;;;;;;4.65;2.95;;;;;;;15.97;52.64;99654.47;5067469;28;20049;-82
2021/05/28 09:32:49;;;;;;;3.28;2.53;;;;;;;15.61;54.41;99644.66;5076312;28;20864;-83
2021/05/28 09:35:18;;;;;;;3.15;2.42;;;;;;;14.76;54.79;99655.00;5067269;28;20071;-82
2021/05/28 09:37:51;;;;;;;9.33;2.87;;;;;;;15.09;54.37;99649.72;5066197;28;20052;-82
2021/05/28 09:40:19;;;;;;;4.57;2.90;;;;;;;16.02;54.12;99638.25;5054706;28;20654;-82
2021/05/28 09:45:38;;;;;;;4.85;2.95;;;;;;;17.39;48.88;99631.28;5054718;28;20079;-82
2021/05/28 09:48:26;;;;;;;5.22;2.58;;;;;;;17.52;47.90;99631.22;5073192;28;20048;-82
2021/05/28 09:54:42;;;;;;;5.07;2.38;;;;;;;18.68;44.15;99629.16;5002038;28;20093;-82
2021/05/28 09:57:29;;;;;;;4.53;2.72;;;;;;;17.71;45.51;99631.38;5070889;28;20048;-82
2021/05/28 10:03:38;;;;;;;2.63;1.70;;;;;;;16.85;45.49;99625.97;4940101;28;20081;-84
2021/05/28 10:09:30;;;;;;;6.18;1.85;;;;;;;16.44;48.23;99616.94;5023080;28;20274;-83
2021/05/28 10:15:23;;;;;;;2.67;1.65;;;;;;;16.45;47.52;99634.25;5073482;28;20040;-81
2021/05/28 10:17:52;;;;;;;4.18;2.00;;;;;;;16.45;48.92;99624.13;5053036;28;20056;-82
2021/05/28 10:20:39;;;;;;;3.10;2.10;;;;;;;16.62;48.69;99621.78;5053307;28;20045;-82
2021/05/28 10:23:44;;;;;;;5.07;2.13;;;;;;;16.48;49.77;99620.09;5041291;28;20091;-82
2021/05/28 10:26:12;;;;;;;6.68;2.72;;;;;;;16.90;50.11;99622.59;5009434;28;20422;-83
2021/05/28 10:28:42;;;;;;;3.70;1.90;;;;;;;17.52;45.41;99628.50;5044033;28;20098;-82
2021/05/28 10:31:10;;;;;;;4.80;1.98;;;;;;;17.73;47.05;99623.72;5053777;28;20436;-83
2021/05/28 10:33:48;;;;;;;2.38;1.90;;;;;;;17.34;47.01;99626.44;5070409;28;20052;-82
2021/05/28 10:36:42;;;;;;;3.55;2.28;;;;;;;16.76;48.55;99627.25;5072838;28;20126;-82
2021/05/28 10:39:15;;;;;;;5.32;2.42;;;;;;;16.76;49.67;99619.00;5062133;28;20045;-82
2021/05/28 10:42:02;;;;;;;3.50;2.13;;;;;;;17.29;48.43;99631.78;5052940;28;20308;-83
2021/05/28 10:44:48;;;;;;;3.72;2.58;;;;;;;17.99;46.91;99609.84;5052850;28;20412;-82
2021/05/28 10:47:29;;;;;;;4.75;2.50;;;;;;;18.69;47.03;99605.22;5053004;28;20049;-81
2021/05/28 10:50:04;;;;;;;3.17;2.17;;;;;;;18.56;44.62;99596.03;5062214;28;20114;-81
2021/05/28 10:52:31;;;;;;;2.00;1.80;;;;;;;18.06;45.76;99615.28;5072492;28;20045;-81
2021/05/28 10:55:01;;;;;;;4.88;2.25;;;;;;;17.83;47.26;99600.19;5062325;28;20049;-81
2021/05/28 10:57:33;;;;;;;2.95;2.25;;;;;;;17.81;47.04;99595.97;5070813;28;20291;-81
2021/05/28 11:00:35;;;;;;;4.20;2.20;;;;;;;17.94;46.78;99606.06;5066812;28;20049;-81
2021/05/28 11:04:01;;;;;;;2.22;1.85;;;;;;;17.15;49.85;99607.09;5052954;28;20053;-82
2021/05/28 11:07:18;;;;;;;2.33;1.98;;;;;;;17.39;45.90;99599.19;4928215;29;20055;-81
2021/05/28 11:10:43;;;;;;;2.67;1.80;;;;;;;17.36;47.69;99602.38;4903835;29;20135;-81
2021/05/28 11:13:19;;;;;;;4.65;2.17;;;;;;;17.70;47.07;99614.00;4932216;28;20496;-82
2021/05/28 11:15:58;;;;;;;5.03;2.47;;;;;;;18.06;46.62;99597.94;5015725;28;20080;-81
2021/05/28 11:18:45;;;;;;;3.20;1.85;;;;;;;18.39;45.26;99594.91;5042562;28;20103;-82
2021/05/28 11:22:01;;;;;;;2.83;1.88;;;;;;;18.86;42.36;99584.31;5054636;28;20040;-80
2021/05/28 11:24:54;;;;;;;2.28;1.90;;;;;;;18.24;45.84;99600.75;5053612;28;20044;-82
2021/05/28 11:27:41;;;;;;;5.63;2.08;;;;;;;17.97;47.87;99589.94;5061654;28;20133;-81
2021/05/28 11:30:26;;;;;;;4.85;2.13;;;;;;;17.99;47.58;99593.34;5052710;28;20068;-82
2021/05/28 11:32:52;;;;;;;4.05;1.83;;;;;;;17.45;47.87;99602.97;5058294;28;20119;-82
2021/05/28 11:35:21;;;;;;;4.03;2.28;;;;;;;17.01;48.66;99604.59;5069027;28;20385;-82
2021/05/28 11:37:53;;;;;;;3.25;1.75;;;;;;;17.37;47.13;99586.72;5053226;28;20045;-82
2021/05/28 11:40:22;;;;;;;2.38;1.80;;;;;;;17.28;47.82;99592.47;5072217;28;20072;-82
2021/05/28 11:42:49;;;;;;;1.63;1.52;;;;;;;16.96;47.55;99595.09;5051670;28;20056;-82
2021/05/28 11:45:18;;;;;;;2.92;1.40;;;;;;;17.10;47.17;99592.31;5053803;28;20060;-82
2021/05/28 11:47:55;;;;;;;3.65;1.38;;;;;;;17.92;44.04;99569.72;5056617;28;20058;-82
2021/05/28 11:50:39;;;;;;;3.30;1.40;;;;;;;18.45;45.62;99571.97;5052320;28;20061;-82
2021/05/28 11:53:11;;;;;;;2.67;1.27;;;;;;;18.47;42.48;99561.59;5064659;28;20044;-81
2021/05/28 11:55:46;;;;;;;2.72;1.20;;;;;;;18.97;40.59;99565.31;5059250;28;20053;-81
2021/05/28 11:58:13;;;;;;;1.13;1.02;;;;;;;19.76;42.06;99568.91;5059469;28;20105;-82
2021/05/28 12:00:40;;;;;;;2.25;1.13;;;;;;;19.59;39.32;99565.16;5065606;28;20044;-81
2021/05/28 12:03:08;;;;;;;3.53;1.55;;;;;;;19.54;39.60;99573.28;5065297;28;20052;-82
2021/05/28 12:05:37;;;;;;;3.35;1.40;;;;;;;19.59;38.94;99570.66;5051216;28;20052;-80
2021/05/28 12:08:20;;;;;;;2.20;0.90;;;;;;;19.39;40.46;99562.66;5051374;28;20087;-82
2021/05/28 12:10:56;;;;;;;2.33;0.90;;;;;;;18.68;42.92;99552.06;5065470;28;20059;-81
2021/05/28 12:13:23;;;;;;;2.85;1.10;;;;;;;18.07;44.65;99569.38;5050911;28;20057;-81
2021/05/28 12:15:55;;;;;;;1.35;1.05;;;;;;;17.64;44.99;99577.28;5065978;28;20511;-81
2021/05/28 12:19:06;;;;;;;1.08;0.90;;;;;;;17.98;44.30;99571.56;5051745;28;20454;-80
2021/05/28 12:21:34;;;;;;;0.95;0.93;;;;;;;17.86;43.82;99554.91;5051798;28;20140;-81
2021/05/28 12:24:00;;;;;;;5.78;1.10;;;;;;;17.69;45.00;99560.94;5051236;28;20475;-81
2021/05/28 12:26:31;;;;;;;2.13;1.05;;;;;;;17.41;44.01;99574.22;5068319;28;20147;-80
2021/05/28 12:28:58;;;;;;;1.48;0.93;;;;;;;17.96;41.42;99557.16;5053414;28;20507;-81
2021/05/28 12:31:26;;;;;;;2.40;0.90;;;;;;;18.73;38.73;99546.69;5059803;28;20480;-83
2021/05/28 12:33:55;;;;;;;0.70;0.70;;;;;;;19.52;37.74;99558.88;5061037;28;20094;-81
2021/05/28 12:36:29;;;;;;;4.07;0.90;;;;;;;20.09;35.33;99555.72;5050826;28;20053;-82
2021/05/28 12:38:58;;;;;;;4.90;0.93;;;;;;;19.25;39.13;99568.38;5051884;28;20498;-81
2021/05/28 12:41:29;;;;;;;1.17;1.10;;;;;;;18.82;39.86;99554.66;5050971;28;20053;-82
2021/05/28 12:43:58;;;;;;;6.43;1.23;;;;;;;18.48;41.46;99555.00;5058316;28;20079;-82
2021/05/28 12:46:26;;;;;;;0.85;0.85;;;;;;;18.30;42.20;99561.31;5070885;28;20048;-82
2021/05/28 12:48:55;;;;;;;2.60;1.00;;;;;;;17.83;43.73;99553.44;5070675;28;20502;-82
2021/05/28 12:51:30;;;;;;;2.60;0.90;;;;;;;17.99;42.78;99551.22;5051630;28;20178;-82
2021/05/28 12:53:58;;;;;;;0.98;0.80;;;;;;;18.03;43.79;99541.47;5059573;28;20100;-83
2021/05/28 12:56:27;;;;;;;2.70;0.98;;;;;;;18.11;43.90;99556.84;5051891;28;20079;-82
2021/05/28 12:58:55;;;;;;;1.70;1.00;;;;;;;18.04;44.48;99556.91;5050867;28;20049;-82
2021/05/28 13:01:23;;;;;;;2.50;0.90;;;;;;;17.85;45.30;99542.19;5051140;28;20138;-82
2021/05/28 13:03:51;;;;;;;1.95;1.02;;;;;;;17.82;45.25;99553.66;5051344;28;20128;-82
2021/05/28 13:06:30;;;;;;;1.35;0.90;;;;;;;17.38;43.50;99553.50;5061257;28;20052;-82
2021/05/28 13:09:02;;;;;;;2.58;0.90;;;;;;;16.99;45.24;99556.22;5071006;28;20048;-83
2021/05/28 13:11:50;;;;;;;2.80;1.10;;;;;;;17.36;44.18;99554.78;5057335;28;20060;-82
2021/05/28 13:14:21;;;;;;;5.20;0.93;;;;;;;18.08;44.64;99549.03;5052456;28;20056;-82
2021/05/28 13:16:48;;;;;;;0.75;0.75;;;;;;;18.85;42.79;99548.72;5055685;28;20045;-81
2021/05/28 13:19:14;;;;;;;0.95;0.65;;;;;;;19.98;42.58;99551.84;5054572;28;20565;-82
2021/05/28 13:21:50;;;;;;;1.77;0.80;;;;;;;20.06;42.21;99542.38;5069462;28;20074;-82
2021/05/28 13:24:35;;;;;;;3.72;1.88;;;;;;;19.78;38.82;99536.47;5062916;28;20056;-81
2021/05/28 13:27:10;;;;;;;0.80;0.70;;;;;;;19.32;42.24;99532.44;5054032;28;20053;-81
2021/05/28 13:29:54;;;;;;;1.65;1.20;;;;;;;19.00;39.82;99549.19;5054288;28;20045;-81
2021/05/28 13:32:27;;;;;;;0.90;0.90;;;;;;;18.38;41.21;99536.28;5053790;28;20111;-81
2021/05/28 13:34:54;;;;;;;1.67;1.02;;;;;;;18.12;42.23;99528.28;5052788;28;20052;-82
2021/05/28 13:37:22;;;;;;;1.83;0.80;;;;;;;17.71;45.63;99546.13;5054431;28;20163;-81
2021/05/28 13:39:49;;;;;;;1.13;0.98;;;;;;;17.93;44.22;99519.09;5053908;28;20115;-81
2021/05/28 13:42:20;;;;;;;3.25;1.13;;;;;;;17.77;45.13;99532.31;5054252;28;20107;-81
2021/05/28 13:44:46;;;;;;;2.72;1.00;;;;;;;17.79;45.83;99515.59;5053543;28;20057;-81
2021/05/28 13:47:14;;;;;;;3.65;1.00;;;;;;;17.84;45.72;99533.13;5053957;28;20393;-84
2021/05/28 13:49:40;;;;;;;1.40;0.95;;;;;;;17.66;46.43;99531.13;5055055;28;20053;-82
2021/05/28 13:52:07;;;;;;;2.05;0.90;;;;;;;17.42;45.72;99523.69;5053898;28;20045;-81
2021/05/28 13:54:33;;;;;;;1.00;0.93;;;;;;;18.03;44.25;99509.28;5054016;28;20496;-81
2021/05/28 13:57:00;;;;;;;3.95;1.42;;;;;;;19.30;41.26;99509.78;5054039;28;20477;-82
2021/05/28 13:59:27;;;;;;;1.17;0.75;;;;;;;19.28;40.98;99522.94;5055276;28;20562;-83
2021/05/28 14:01:53;;;;;;;2.47;1.08;;;;;;;18.79;43.15;99513.78;5057566;28;20090;-81
2021/05/28 14:04:23;;;;;;;6.00;1.20;;;;;;;18.82;42.21;99514.19;5053420;28;20098;-82
2021/05/28 14:06:49;;;;;;;4.75;1.08;;;;;;;18.35;42.61;99502.84;5058457;28;20098;-82
2021/05/28 14:09:16;;;;;;;3.85;1.00;;;;;;;18.73;42.96;99499.88;5053964;28;20056;-82
2021/05/28 14:11:42;;;;;;;1.77;0.90;;;;;;;18.76;43.63;99512.38;5054592;28;20067;-81
2021/05/28 14:14:10;;;;;;;1.17;0.77;;;;;;;18.43;40.63;99497.06;5053001;28;20069;-81
2021/05/28 14:16:36;;;;;;;1.63;1.10;;;;;;;18.98;39.39;99503.63;5063116;28;20041;-81
2021/05/28 14:19:03;;;;;;;2.35;1.05;;;;;;;18.98;38.02;99501.72;5053547;28;20106;-82
2021/05/28 14:21:29;;;;;;;4.30;1.17;;;;;;;18.86;40.13;99500.81;5066380;28;20450;-82
2021/05/28 14:23:56;;;;;;;2.65;1.05;;;;;;;19.05;38.90;99482.38;5068022;28;20476;-81
2021/05/28 14:26:25;;;;;;;0.95;0.73;;;;;;;19.75;37.88;99492.78;5052853;28;20267;-81
2021/05/28 14:28:51;;;;;;;1.30;0.68;;;;;;;19.66;37.98;99496.09;5053932;28;20180;-81
2021/05/28 14:31:19;;;;;;;1.33;0.65;;;;;;;19.71;37.48;99483.28;5053291;28;20127;-82
2021/05/28 14:33:51;;;;;;;2.30;1.10;;;;;;;19.92;36.40;99494.88;5056185;28;20080;-81
2021/05/28 14:36:37;;;;;;;3.28;0.95;;;;;;;19.39;36.52;99494.59;5052957;28;20546;-82
2021/05/28 14:39:07;;;;;;;0.70;0.70;;;;;;;19.23;38.79;99463.00;5056067;28;20055;-80
2021/05/28 14:41:34;;;;;;;1.85;0.95;;;;;;;19.41;37.90;99480.59;5072419;28;20048;-79
2021/05/28 14:44:03;;;;;;;1.02;0.82;;;;;;;19.66;37.96;99480.41;5071662;28;20055;-79
2021/05/28 14:46:34;;;;;;;1.50;0.90;;;;;;;19.54;36.94;99482.28;5070310;28;20049;-79
2021/05/28 14:49:00;;;;;;;1.98;1.00;;;;;;;19.50;38.38;99476.41;5071753;28;20052;-79
2021/05/28 14:51:28;;;;;;;3.97;0.93;;;;;;;19.49;37.45;99482.97;5057460;28;20264;-80
2021/05/28 14:53:55;;;;;;;9.05;1.73;;;;;;;19.77;36.88;99478.75;5064277;28;20048;-79
2021/05/28 14:56:23;;;;;;;1.83;0.77;;;;;;;19.42;37.89;99476.72;5055931;28;20049;-80
2021/05/28 14:58:49;;;;;;;1.63;1.02;;;;;;;19.22;39.68;99475.09;5052671;28;20045;-79
2021/05/28 15:01:15;;;;;;;1.30;0.80;;;;;;;18.94;40.87;99475.72;5052763;28;20049;-80
2021/05/28 15:03:42;;;;;;;1.23;0.80;;;;;;;19.09;38.76;99480.84;5052945;28;20385;-79
2021/05/28 15:06:12;;;;;;;3.78;1.10;;;;;;;18.69;40.31;99475.78;5052003;28;20044;-80
2021/05/28 15:08:38;;;;;;;2.28;0.80;;;;;;;18.06;42.44;99468.66;5054782;28;20055;-78
2021/05/28 15:11:05;;;;;;;1.92;0.98;;;;;;;17.74;43.89;99483.28;5058547;28;20053;-79
2021/05/28 15:13:33;;;;;;;2.40;0.90;;;;;;;17.81;44.89;99485.97;5054043;28;20053;-78
2021/05/28 15:15:59;;;;;;;2.30;1.00;;;;;;;18.02;46.18;99490.25;5057996;28;20060;-78
2021/05/28 15:18:26;;;;;;;4.57;1.35;;;;;;;17.55;45.47;99492.53;5057603;28;20073;-79
2021/05/28 15:20:54;;;;;;;2.30;1.08;;;;;;;17.62;45.38;99487.81;5071728;28;20105;-80
2021/05/28 15:23:22;;;;;;;2.88;1.00;;;;;;;18.31;43.78;99476.88;5057621;28;20049;-80
2021/05/28 15:25:48;;;;;;;3.17;1.00;;;;;;;18.51;44.18;99482.97;5051259;28;20045;-80
2021/05/28 15:28:23;;;;;;;2.35;1.00;;;;;;;18.27;42.91;99470.13;5063146;28;20052;-80
2021/05/28 15:30:52;;;;;;;4.05;1.17;;;;;;;18.53;43.13;99480.00;5071846;28;20048;-80
2021/05/28 15:33:18;;;;;;;7.53;1.40;;;;;;;18.28;43.28;99471.81;5061323;28;20053;-78
2021/05/28 15:35:46;;;;;;;1.35;1.08;;;;;;;17.90;44.56;99470.91;5065638;28;20094;-78
2021/05/28 15:38:13;;;;;;;2.33;1.00;;;;;;;17.88;45.14;99470.25;5068782;28;20052;-79
2021/05/28 15:40:40;;;;;;;1.48;0.80;;;;;;;18.10;43.19;99481.72;5065381;28;20052;-78
2021/05/28 15:43:08;;;;;;;1.90;1.00;;;;;;;18.14;42.42;99480.22;5070584;28;20098;-78
2021/05/28 15:45:35;;;;;;;3.67;1.10;;;;;;;18.42;42.04;99467.00;5055709;28;20056;-78
2021/05/28 15:48:02;;;;;;;1.38;0.82;;;;;;;18.26;42.75;99480.31;5051720;28;20056;-78
2021/05/28 15:50:35;;;;;;;2.10;1.00;;;;;;;18.35;43.52;99478.94;5055989;28;20059;-78
2021/05/28 15:53:04;;;;;;;2.30;0.90;;;;;;;18.32;43.80;99484.03;5068522;28;20074;-79
2021/05/28 15:55:32;;;;;;;5.00;1.30;;;;;;;18.05;44.25;99487.06;5051123;28;20063;-79
2021/05/28 15:57:58;;;;;;;2.08;1.10;;;;;;;17.73;44.32;99476.09;5054467;28;20047;-79
2021/05/28 16:00:24;;;;;;;2.40;1.20;;;;;;;17.45;43.76;99468.28;5070729;28;20044;-79
2021/05/28 16:02:50;;;;;;;4.72;1.10;;;;;;;17.34;44.41;99469.81;5058320;28;20545;-79
2021/05/28 16:05:17;;;;;;;2.40;1.10;;;;;;;17.39;44.50;99481.00;5070676;28;20060;-79
2021/05/28 16:07:43;;;;;;;4.40;1.17;;;;;;;17.53;44.38;99479.00;5062814;28;20041;-79
2021/05/28 16:10:12;;;;;;;1.65;1.10;;;;;;;17.39;44.63;99469.16;5069508;28;20415;-78
2021/05/28 16:12:39;;;;;;;2.33;1.00;;;;;;;17.52;44.93;99472.69;5067401;28;20393;-77
2021/05/28 16:15:11;;;;;;;2.13;1.02;;;;;;;17.65;44.49;99474.47;5058796;28;20451;-80
2021/05/28 16:17:40;;;;;;;2.53;1.05;;;;;;;17.77;44.65;99471.00;5051226;28;20658;-79
2021/05/28 16:20:08;;;;;;;1.58;1.00;;;;;;;17.67;43.83;99472.34;5051296;28;20510;-80
2021/05/28 16:22:34;;;;;;;2.65;1.10;;;;;;;17.60;43.29;99468.81;5050697;28;20127;-80
2021/05/28 16:25:00;;;;;;;4.30;1.05;;;;;;;17.77;43.88;99469.09;5053748;28;20041;-80
2021/05/28 16:27:27;;;;;;;1.05;0.90;;;;;;;17.76;42.99;99469.31;5059291;28;20094;-80
2021/05/28 16:29:54;;;;;;;1.70;1.00;;;;;;;17.23;44.22;99463.13;5050109;28;20060;-81
2021/05/28 16:32:20;;;;;;;3.83;1.17;;;;;;;17.66;44.36;99459.66;5050349;28;20408;-81
2021/05/28 16:34:46;;;;;;;2.67;0.93;;;;;;;17.66;45.01;99456.09;5050582;28;20122;-82
2021/05/28 16:37:13;;;;;;;2.88;1.00;;;;;;;17.71;44.32;99458.16;5051007;28;20048;-81
2021/05/28 16:39:39;;;;;;;7.15;1.00;;;;;;;17.25;44.32;99473.91;5063337;28;20047;-81
2021/05/28 16:42:06;;;;;;;1.52;1.10;;;;;;;17.46;44.15;99461.72;5053406;28;20056;-80
2021/05/28 16:44:32;;;;;;;2.55;1.10;;;;;;;17.05;43.97;99457.56;5053677;28;20555;-80
2021/05/28 16:46:59;;;;;;;1.75;1.08;;;;;;;17.38;43.33;99465.56;5050835;28;20041;-81
2021/05/28 16:49:26;;;;;;;2.03;0.90;;;;;;;17.79;43.33;99457.84;5052964;28;20141;-81
2021/05/28 16:51:52;;;;;;;1.52;0.98;;;;;;;17.97;42.43;99460.66;5055150;28;20443;-80
2021/05/28 16:54:18;;;;;;;4.22;1.20;;;;;;;17.92;41.27;99446.78;5054547;28;20082;-80
2021/05/28 16:56:44;;;;;;;1.35;1.25;;;;;;;18.02;41.48;99458.09;5054964;28;20053;-80
2021/05/28 16:59:13;;;;;;;3.75;1.08;;;;;;;17.59;42.17;99461.63;5055795;28;20045;-81
2021/05/28 17:01:39;;;;;;;1.00;0.68;;;;;;;18.05;41.51;99451.31;5054152;28;20065;-80
2021/05/28 17:04:06;;;;;;;1.55;0.70;;;;;;;17.75;41.17;99454.72;5056676;28;20110;-80
2021/05/28 17:06:33;;;;;;;1.25;0.90;;;;;;;17.69;41.80;99448.22;5056051;28;20045;-80
2021/05/28 17:09:00;;;;;;;1.38;0.70;;;;;;;18.03;42.04;99467.19;5055915;28;20041;-80
2021/05/28 17:11:26;;;;;;;0.77;0.73;;;;;;;17.75;40.56;99440.13;5054129;28;20057;-78
2021/05/28 17:13:52;;;;;;;1.85;0.88;;;;;;;17.63;41.84;99451.88;5053965;28;20057;-80
2021/05/28 17:16:20;;;;;;;3.00;0.90;;;;;;;17.50;42.13;99458.28;5052991;28;20061;-80
2021/05/28 17:18:46;;;;;;;3.58;1.00;;;;;;;17.25;41.84;99452.78;5053055;28;20286;-80
2021/05/28 17:21:16;;;;;;;2.45;1.00;;;;;;;16.95;43.32;99442.41;5054053;28;20053;-80
2021/05/28 17:23:43;;;;;;;2.10;1.17;;;;;;;17.11;42.92;99441.03;5054410;28;20061;-80
2021/05/28 17:26:10;;;;;;;1.92;1.05;;;;;;;16.97;42.88;99437.50;5053194;28;20044;-81
2021/05/28 17:28:36;;;;;;;0.70;0.70;;;;;;;16.98;44.19;99449.34;5053589;28;20071;-80
2021/05/28 17:31:06;;;;;;;1.05;0.85;;;;;;;16.95;44.46;99456.13;5055650;28;20053;-80
2021/05/28 17:33:32;;;;;;;3.70;0.80;;;;;;;17.12;44.66;99447.38;5066478;28;20083;-80
2021/05/28 17:35:59;;;;;;;1.35;0.90;;;;;;;17.05;45.31;99452.06;5064164;28;20051;-80
2021/05/28 17:38:26;;;;;;;0.98;0.70;;;;;;;16.94;44.77;99443.44;5066209;28;20056;-80
2021/05/28 17:40:53;;;;;;;2.55;0.80;;;;;;;16.81;45.36;99446.22;5054264;28;20110;-80
2021/05/28 17:43:19;;;;;;;1.10;1.00;;;;;;;16.67;45.82;99461.09;5053863;28;20071;-81
2021/05/28 17:45:45;;;;;;;3.17;0.95;;;;;;;16.27;45.46;99449.19;5068657;28;20147;-80
2021/05/28 17:48:11;;;;;;;1.17;1.08;;;;;;;16.17;46.33;99464.38;5073811;28;20041;-80
2021/05/28 17:50:38;;;;;;;1.45;0.80;;;;;;;16.19;46.99;99463.13;5070515;28;20052;-80
2021/05/28 17:53:05;;;;;;;2.33;1.08;;;;;;;16.29;46.74;99457.22;5070470;28;20065;-80
2021/05/28 17:55:33;;;;;;;0.88;0.77;;;;;;;16.23;47.12;99455.34;5072537;28;20044;-80
2021/05/28 17:57:59;;;;;;;1.23;0.88;;;;;;;16.27;47.66;99459.31;5072568;28;20068;-81
2021/05/28 18:00:25;;;;;;;6.88;1.98;;;;;;;16.31;47.55;99467.97;5052909;28;20045;-80
2021/05/28 18:02:51;;;;;;;4.32;1.08;;;;;;;16.24;48.29;99452.38;5054356;28;20064;-80
2021/05/28 18:05:18;;;;;;;1.25;1.00;;;;;;;16.29;47.29;99462.69;5053189;28;20045;-80
2021/05/28 18:07:44;;;;;;;1.27;0.73;;;;;;;16.20;48.10;99455.72;5066825;28;20048;-80
2021/05/28 18:10:13;;;;;;;1.67;0.77;;;;;;;16.12;48.46;99439.53;5073317;28;20044;-81
2021/05/28 18:12:43;;;;;;;3.13;0.88;;;;;;;16.11;48.83;99449.66;5052505;28;20400;-80
2021/05/28 18:15:11;;;;;;;1.10;1.00;;;;;;;16.13;48.11;99457.66;5063447;28;20049;-80
2021/05/28 18:17:39;;;;;;;1.95;0.73;;;;;;;16.04;46.73;99462.53;5053148;28;20416;-80
2021/05/28 18:20:10;;;;;;;8.07;1.17;;;;;;;15.86;46.66;99452.22;5068330;28;20051;-80
2021/05/28 18:22:39;;;;;;;1.50;0.60;;;;;;;15.93;48.64;99466.78;5072605;28;20048;-80
2021/05/28 18:25:07;;;;;;;2.55;0.90;;;;;;;15.89;47.46;99458.09;5053842;28;20473;-80
2021/05/28 18:27:34;;;;;;;1.73;1.50;;;;;;;15.77;48.18;99473.47;5052872;28;20048;-80
2021/05/28 18:30:12;;;;;;;3.25;1.00;;;;;;;15.62;47.77;99451.75;5057100;28;20480;-80
2021/05/28 18:32:39;;;;;;;1.20;0.73;;;;;;;15.67;48.58;99470.31;5072717;28;20488;-80
2021/05/28 18:35:06;;;;;;;0.98;0.80;;;;;;;15.46;49.30;99464.00;5067814;28;20071;-80
2021/05/28 18:37:32;;;;;;;1.02;0.80;;;;;;;15.47;50.30;99468.41;5064701;28;20103;-80
2021/05/28 18:40:02;;;;;;;7.43;1.00;;;;;;;15.36;50.89;99463.56;5061193;28;20484;-80
2021/05/28 18:42:28;;;;;;;2.13;1.20;;;;;;;15.32;49.07;99462.28;5054914;28;20056;-81
2021/05/28 18:44:54;;;;;;;0.73;0.73;;;;;;;15.26;48.98;99474.06;5056555;28;20437;-80
2021/05/28 18:47:24;;;;;;;1.65;1.00;;;;;;;15.15;48.62;99459.09;5051386;28;20048;-80
2021/05/28 18:49:51;;;;;;;1.42;0.88;;;;;;;15.25;50.26;99475.13;5064319;28;20044;-80
2021/05/28 18:52:18;;;;;;;2.00;0.90;;;;;;;15.14;51.06;99469.19;5052630;28;20110;-80
2021/05/28 18:54:44;;;;;;;1.90;1.00;;;;;;;15.11;53.19;99479.72;5052151;28;20055;-80
2021/05/28 18:57:10;;;;;;;5.03;0.90;;;;;;;14.92;54.89;99476.75;5053402;28;20045;-81
2021/05/28 18:59:40;;;;;;;1.50;0.90;;;;;;;14.83;55.27;99483.44;5057579;28;20432;-80
2021/05/28 19:02:08;;;;;;;2.38;1.00;;;;;;;14.78;53.88;99481.31;5052089;28;20451;-80
2021/05/28 19:04:35;;;;;;;1.85;0.98;;;;;;;14.65;52.83;99481.28;5068402;28;20439;-81
2021/05/28 19:07:01;;;;;;;1.45;0.75;;;;;;;14.64;55.47;99491.34;5072524;28;20048;-80
2021/05/28 19:09:27;;;;;;;3.53;1.02;;;;;;;14.55;54.66;99487.06;5063958;28;20036;-80
2021/05/28 19:12:01;;;;;;;3.75;0.80;;;;;;;14.46;53.34;99482.81;5071479;28;20404;-79
2021/05/28 19:14:28;;;;;;;2.20;1.00;;;;;;;14.39;52.58;99491.00;5054941;28;20047;-79
2021/05/28 19:16:54;;;;;;;1.10;1.00;;;;;;;14.35;53.57;99497.91;5061299;28;20134;-80
2021/05/28 19:19:21;;;;;;;3.33;1.13;;;;;;;14.19;54.38;99487.28;5052992;28;20049;-80
2021/05/28 19:21:48;;;;;;;11.07;4.00;;;;;;;14.12;55.38;99490.84;5063605;28;20053;-80
2021/05/28 19:24:15;;;;;;;8.52;5.65;;;;;;;14.23;54.24;99508.56;5068179;28;20045;-80
2021/05/28 19:26:44;;;;;;;3.33;2.42;;;;;;;14.20;52.46;99508.13;5060610;28;20490;-81
2021/05/28 19:29:11;;;;;;;7.10;3.97;;;;;;;14.10;51.81;99494.81;5070300;28;20044;-81
2021/05/28 19:31:37;;;;;;;5.30;2.20;;;;;;;14.02;52.02;99500.44;5062627;28;20048;-81
2021/05/28 19:34:03;;;;;;;3.00;1.95;;;;;;;14.03;52.68;99502.09;5051558;28;20190;-80
2021/05/28 19:36:31;;;;;;;1.50;1.10;;;;;;;14.05;53.88;99517.28;5055746;28;20052;-81
2021/05/28 19:38:58;;;;;;;2.92;2.20;;;;;;;13.91;55.31;99515.47;5051724;28;20051;-81
2021/05/28 19:41:25;;;;;;;4.25;3.28;;;;;;;13.81;55.18;99515.81;5056955;28;20055;-81
2021/05/28 19:43:53;;;;;;;1.30;0.90;;;;;;;13.80;56.50;99512.25;5071069;28;20056;-81
2021/05/28 19:46:21;;;;;;;1.13;0.77;;;;;;;13.80;58.07;99515.00;5062265;28;20052;-80
2021/05/28 19:48:48;;;;;;;1.58;1.00;;;;;;;13.65;59.06;99506.00;5067690;28;20071;-81
2021/05/28 19:51:14;;;;;;;1.77;0.82;;;;;;;13.69;58.17;99522.88;5053525;28;20106;-81
2021/05/28 19:53:53;;;;;;;1.13;1.00;;;;;;;13.63;56.91;99521.75;5051338;28;20045;-81
2021/05/28 19:56:20;;;;;;;1.30;1.00;;;;;;;13.49;59.46;99534.44;5056168;28;20397;-81
2021/05/28 19:58:51;;;;;;;1.23;0.85;;;;;;;13.41;58.49;99540.03;5050876;28;20048;-81
2021/05/28 20:01:34;;;;;;;1.85;1.02;;;;;;;13.34;58.70;99530.91;5063884;28;20044;-81
2021/05/28 20:04:12;;;;;;;0.77;0.77;;;;;;;13.24;59.04;99531.22;5069160;28;20058;-81
2021/05/28 20:06:39;;;;;;;1.67;0.90;;;;;;;13.30;57.56;99538.63;5063526;28;20450;-81
2021/05/28 20:09:08;;;;;;;0.98;0.90;;;;;;;13.13;59.87;99524.38;5052015;28;20047;-81
2021/05/28 20:11:40;;;;;;;3.80;1.02;;;;;;;13.20;58.60;99536.22;5049611;28;20102;-81
2021/05/28 20:14:25;;;;;;;9.23;2.75;;;;;;;13.06;58.87;99540.66;5049971;28;20056;-81
2021/05/28 20:16:54;;;;;;;7.25;3.28;;;;;;;13.16;61.11;99553.16;5050908;28;20060;-81
2021/05/28 20:19:21;;;;;;;2.78;1.58;;;;;;;13.09;61.85;99556.66;5050935;28;20079;-81
2021/05/28 20:21:47;;;;;;;1.20;0.88;;;;;;;12.89;63.11;99547.41;5058460;28;20059;-81
2021/05/28 20:24:13;;;;;;;1.73;1.30;;;;;;;12.70;63.22;99544.19;5064273;28;20321;-81
2021/05/28 20:26:41;;;;;;;3.03;1.30;;;;;;;12.86;64.20;99551.34;5068734;28;20199;-81
2021/05/28 20:29:10;;;;;;;3.67;1.90;;;;;;;12.79;63.06;99544.13;5065965;28;20036;-81
2021/05/28 20:31:37;;;;;;;2.97;1.67;;;;;;;12.97;62.76;99554.63;5056072;28;20049;-81
2021/05/28 20:34:05;;;;;;;2.67;1.10;;;;;;;12.94;62.71;99561.31;5055558;28;20045;-81
2021/05/28 20:36:31;;;;;;;3.88;2.03;;;;;;;12.81;62.57;99545.63;5051032;28;20049;-81
2021/05/28 20:38:58;;;;;;;2.35;1.20;;;;;;;12.68;63.47;99554.47;5057130;28;20079;-81
2021/05/28 20:41:24;;;;;;;2.47;2.08;;;;;;;12.77;63.39;99555.22;5060087;28;20480;-80
2021/05/28 20:43:51;;;;;;;6.47;2.38;;;;;;;12.69;63.06;99558.91;5050908;28;20068;-81
2021/05/28 20:46:18;;;;;;;5.00;1.50;;;;;;;12.55;63.30;99554.28;5068709;28;20044;-81